createdAt,value
2024-05-09T00:02:41.484Z,8.65
2024-05-09T00:05:44.700Z,8.89
2024-05-09T00:08:47.492Z,8.50
2024-05-09T00:11:50.202Z,8.54
2024-05-09T00:14:52.874Z,8.50
2024-05-09T00:17:55.546Z,8.44
2024-05-09T00:20:58.253Z,8.60
2024-05-09T00:24:00.933Z,8.41
2024-05-09T00:27:03.530Z,8.50
2024-05-09T00:30:07.263Z,8.45
2024-05-09T00:33:11.162Z,8.34
2024-05-09T00:36:14.286Z,8.43
2024-05-09T00:39:16.839Z,8.31
2024-05-09T00:42:19.468Z,8.34
2024-05-09T00:45:22.074Z,8.31
2024-05-09T00:48:27.297Z,8.31
2024-05-09T00:51:30.264Z,8.23
2024-05-09T00:54:33.622Z,8.30
2024-05-09T00:57:36.254Z,8.19
2024-05-09T01:00:40.941Z,8.22
2024-05-09T01:03:45.930Z,8.13
2024-05-09T01:06:49.418Z,8.12
2024-05-09T01:09:51.917Z,8.06
2024-05-09T01:12:54.548Z,8.09
2024-05-09T01:15:58.546Z,8.07
2024-05-09T01:19:02.075Z,8.01
2024-05-09T01:22:04.959Z,7.98
2024-05-09T01:25:07.773Z,8.00
2024-05-09T01:28:10.540Z,7.91
2024-05-09T01:31:16.318Z,7.81
2024-05-09T01:34:19.381Z,7.66
2024-05-09T01:37:21.996Z,7.82
2024-05-09T01:40:33.528Z,7.92
2024-05-09T01:43:40.484Z,8.12
2024-05-09T01:46:43.079Z,8.38
2024-05-09T01:49:45.717Z,8.47
2024-05-09T01:52:48.404Z,8.30
2024-05-09T01:55:51.016Z,8.58
2024-05-09T01:58:53.655Z,8.67
2024-05-09T02:01:57.895Z,8.50
2024-05-09T02:05:00.774Z,8.50
2024-05-09T02:08:03.513Z,8.42
2024-05-09T02:11:06.277Z,8.47
2024-05-09T02:14:08.857Z,8.55
2024-05-09T02:17:11.371Z,8.41
2024-05-09T02:20:22.426Z,8.36
2024-05-09T02:23:30.021Z,8.34
2024-05-09T02:26:32.660Z,8.33
2024-05-09T02:29:35.538Z,8.47
2024-05-09T02:32:38.343Z,8.39
2024-05-09T02:35:41.862Z,8.53
2024-05-09T02:38:44.610Z,8.40
2024-05-09T02:41:47.163Z,8.38
2024-05-09T02:44:49.788Z,8.25
2024-05-09T02:47:52.527Z,8.25
2024-05-09T02:50:55.297Z,8.25
2024-05-09T02:53:57.923Z,8.26
2024-05-09T02:57:00.491Z,8.25
2024-05-09T03:00:03.655Z,8.19
2024-05-09T03:03:10.599Z,8.02
2024-05-09T03:06:15.203Z,8.17
2024-05-09T03:09:17.788Z,8.09
2024-05-09T03:12:20.343Z,7.97
2024-05-09T03:15:23.072Z,7.97
2024-05-09T03:18:25.688Z,8.08
2024-05-09T03:21:28.404Z,8.01
2024-05-09T03:24:30.906Z,8.08
2024-05-09T03:27:33.493Z,7.94
2024-05-09T03:30:41.291Z,8.05
2024-05-09T03:33:46.227Z,8.10
2024-05-09T03:36:49.030Z,8.14
2024-05-09T03:39:51.555Z,8.18
2024-05-09T03:42:54.260Z,8.16
2024-05-09T03:45:57.431Z,8.14
2024-05-09T03:49:00.015Z,8.25
2024-05-09T03:52:05.629Z,8.10
2024-05-09T03:55:08.345Z,8.11
2024-05-09T03:58:13.233Z,8.01
2024-05-09T04:01:15.822Z,8.11
2024-05-09T04:04:18.419Z,8.10
2024-05-09T04:07:21.071Z,8.36
2024-05-09T04:10:30.519Z,8.22
2024-05-09T04:13:35.819Z,8.22
2024-05-09T04:16:38.323Z,8.41
2024-05-09T04:19:40.979Z,8.36
2024-05-09T04:22:43.732Z,8.53
2024-05-09T04:25:47.206Z,8.27
2024-05-09T04:28:49.852Z,8.29
2024-05-09T04:31:52.516Z,8.26
2024-05-09T04:34:55.207Z,8.64
2024-05-09T04:37:57.849Z,8.66
2024-05-09T04:41:00.527Z,8.64
2024-05-09T04:44:03.178Z,8.76
2024-05-09T04:47:05.692Z,8.76
2024-05-09T04:50:11.589Z,8.70
2024-05-09T04:53:17.635Z,8.69
2024-05-09T04:56:20.393Z,8.94
2024-05-09T04:59:23.050Z,8.92
2024-05-09T05:02:25.620Z,9.05
2024-05-09T05:05:28.339Z,9.23
2024-05-09T05:08:31.153Z,9.41
2024-05-09T05:11:34.067Z,9.50
2024-05-09T05:14:36.655Z,9.46
2024-05-09T05:17:40.325Z,9.48
2024-05-09T05:20:43.693Z,9.66
2024-05-09T05:23:46.319Z,9.59
2024-05-09T05:26:48.888Z,9.79
2024-05-09T05:29:51.440Z,9.99
2024-05-09T05:32:54.377Z,10.20
2024-05-09T05:35:57.667Z,10.19
2024-05-09T05:39:00.247Z,10.54
2024-05-09T05:42:02.802Z,10.58
2024-05-09T05:45:09.875Z,10.74
2024-05-09T05:48:14.154Z,10.84
2024-05-09T05:51:17.030Z,10.90
2024-05-09T05:54:19.717Z,11.07
2024-05-09T05:57:22.212Z,11.14
2024-05-09T06:00:30.166Z,11.27
2024-05-09T06:03:40.153Z,11.25
2024-05-09T06:06:42.900Z,11.39
2024-05-09T06:09:47.634Z,11.53
2024-05-09T06:12:51.590Z,11.42
2024-05-09T06:15:54.036Z,11.53
2024-05-09T06:18:56.712Z,11.65
2024-05-09T06:21:59.397Z,11.61
2024-05-09T06:25:01.992Z,11.96
2024-05-09T06:28:05.170Z,11.93
2024-05-09T06:31:07.977Z,12.02
2024-05-09T06:34:10.828Z,11.83
2024-05-09T06:37:13.594Z,11.88
2024-05-09T06:40:21.384Z,11.98
2024-05-09T06:43:28.002Z,12.04
2024-05-09T06:46:30.618Z,12.09
2024-05-09T06:49:33.326Z,12.12
2024-05-09T06:52:35.953Z,12.07
2024-05-09T06:55:38.464Z,12.14
2024-05-09T06:58:41.110Z,12.07
2024-05-09T07:01:43.839Z,12.16
2024-05-09T07:04:46.703Z,12.33
2024-05-09T07:07:49.430Z,12.24
2024-05-09T07:10:52.196Z,12.37
2024-05-09T07:13:54.898Z,12.69
2024-05-09T07:16:57.496Z,12.89
2024-05-09T07:20:00.658Z,13.03
2024-05-09T07:23:03.826Z,12.90
2024-05-09T07:26:06.445Z,13.12
2024-05-09T07:29:09.127Z,13.22
2024-05-09T07:32:11.946Z,13.47
2024-05-09T07:35:14.676Z,13.41
2024-05-09T07:38:17.450Z,13.20
2024-05-09T07:41:20.045Z,13.66
2024-05-09T07:44:22.809Z,13.93
2024-05-09T07:48:56.930Z,13.96
2024-05-09T07:53:58.288Z,14.11
2024-05-09T07:57:03.166Z,14.27
2024-05-09T08:00:06.770Z,14.30
2024-05-09T08:03:11.005Z,14.55
2024-05-09T08:06:13.652Z,14.74
2024-05-09T08:09:20.916Z,14.83
2024-05-09T08:12:24.012Z,14.81
2024-05-09T08:15:26.679Z,14.73
2024-05-09T08:18:29.543Z,14.96
2024-05-09T08:21:32.573Z,14.96
2024-05-09T08:24:36.182Z,14.96
2024-05-09T08:27:38.790Z,15.22
2024-05-09T08:30:41.812Z,15.35
2024-05-09T08:33:48.646Z,15.44
2024-05-09T08:36:51.369Z,15.46
2024-05-09T08:39:53.974Z,15.45
2024-05-09T08:42:58.077Z,15.44
2024-05-09T08:46:02.621Z,15.51
2024-05-09T08:49:05.523Z,15.65
2024-05-09T08:52:08.836Z,15.71
2024-05-09T08:55:11.501Z,15.59
2024-05-09T08:58:20.546Z,15.64
2024-05-09T09:01:24.293Z,15.74
2024-05-09T09:04:28.558Z,15.87
2024-05-09T09:07:33.855Z,15.67
2024-05-09T09:10:40.104Z,15.85
2024-05-09T09:13:42.733Z,16.09
2024-05-09T09:16:46.351Z,16.04
2024-05-09T09:19:48.899Z,16.14
2024-05-09T09:22:52.976Z,16.12
2024-05-09T09:25:59.319Z,16.00
2024-05-09T09:29:02.589Z,16.05
2024-05-09T09:32:07.312Z,16.02
2024-05-09T09:35:09.879Z,16.17
2024-05-09T09:38:18.673Z,16.19
2024-05-09T09:41:26.158Z,16.15
2024-05-09T09:44:29.624Z,16.24
2024-05-09T09:47:33.626Z,16.36
2024-05-09T09:50:36.673Z,16.26
2024-05-09T09:53:39.636Z,16.41
2024-05-09T09:56:43.639Z,16.57
2024-05-09T09:59:49.410Z,16.35
2024-05-09T10:02:51.995Z,16.39
2024-05-09T10:05:55.469Z,16.57
2024-05-09T10:08:58.438Z,16.60
2024-05-09T10:12:14.509Z,16.68
2024-05-09T10:15:20.512Z,16.90
2024-05-09T10:18:30.273Z,16.63
2024-05-09T10:21:33.984Z,16.70
2024-05-09T10:25:09.048Z,16.96
2024-05-09T10:28:12.855Z,17.07
2024-05-09T10:31:16.675Z,17.05
2024-05-09T10:34:21.724Z,17.07
2024-05-09T10:37:25.822Z,17.11
2024-05-09T10:40:31.699Z,16.95
2024-05-09T10:43:38.982Z,16.84
2024-05-09T10:46:51.099Z,16.84
2024-05-09T10:49:56.044Z,16.93
2024-05-09T10:52:58.713Z,17.06
2024-05-09T10:56:02.429Z,17.10
2024-05-09T10:59:05.925Z,17.31
2024-05-09T11:02:08.772Z,17.06
2024-05-09T11:05:12.201Z,17.12
2024-05-09T11:08:16.147Z,17.23
2024-05-09T11:11:19.185Z,17.09
2024-05-09T11:14:21.772Z,17.23
2024-05-09T11:17:24.554Z,17.36
2024-05-09T11:20:37.432Z,17.46
2024-05-09T11:23:40.374Z,17.35
2024-05-09T11:26:43.624Z,17.16
2024-05-09T11:29:47.766Z,17.43
2024-05-09T11:32:50.613Z,17.97
2024-05-09T11:35:53.276Z,17.94
2024-05-09T11:38:55.800Z,17.75
2024-05-09T11:41:58.443Z,17.90
2024-05-09T11:45:01.141Z,17.95
2024-05-09T11:48:04.520Z,17.91
2024-05-09T11:51:07.280Z,17.77
2024-05-09T11:54:09.845Z,17.77
2024-05-09T11:57:12.436Z,18.10
2024-05-09T12:00:20.707Z,17.98
2024-05-09T12:03:31.635Z,17.93
2024-05-09T12:06:34.365Z,18.17
2024-05-09T12:09:37.056Z,18.26
2024-05-09T12:12:40.442Z,18.24
2024-05-09T12:15:42.990Z,18.26
2024-05-09T12:18:45.730Z,18.04
2024-05-09T12:21:48.390Z,18.05
2024-05-09T12:24:50.962Z,18.01
2024-05-09T12:27:53.968Z,18.10
2024-05-09T12:30:56.584Z,17.94
2024-05-09T12:34:00.780Z,18.14
2024-05-09T12:37:03.536Z,18.16
2024-05-09T12:40:12.749Z,18.11
2024-05-09T12:43:21.162Z,18.15
2024-05-09T12:46:24.169Z,18.20
2024-05-09T12:49:27.042Z,18.27
2024-05-09T12:52:29.675Z,18.12
2024-05-09T12:55:43.922Z,18.22
2024-05-09T12:58:52.073Z,18.32
2024-05-09T13:01:56.540Z,18.45
2024-05-09T13:04:59.988Z,18.60
2024-05-09T13:08:03.922Z,18.55
2024-05-09T13:11:06.728Z,18.38
2024-05-09T13:14:09.317Z,18.36
2024-05-09T13:17:12.028Z,18.40
2024-05-09T13:20:22.921Z,18.44
2024-05-09T13:23:31.969Z,18.41
2024-05-09T13:26:34.742Z,18.42
2024-05-09T13:29:39.082Z,18.49
2024-05-09T13:32:43.104Z,18.42
2024-05-09T13:35:49.607Z,18.47
2024-05-09T13:38:53.639Z,18.75
2024-05-09T13:41:56.184Z,18.57
2024-05-09T13:44:58.802Z,18.75
2024-05-09T13:48:07.236Z,18.83
2024-05-09T13:51:09.958Z,18.64
2024-05-09T13:54:12.513Z,18.46
2024-05-09T13:57:15.026Z,18.53
2024-05-09T14:00:30.948Z,18.57
2024-05-09T14:03:40.466Z,18.58
2024-05-09T14:06:43.683Z,18.63
2024-05-09T14:09:47.490Z,18.77
2024-05-09T14:12:50.203Z,18.94
2024-05-09T14:15:53.050Z,18.79
2024-05-09T14:18:55.760Z,18.72
2024-05-09T14:21:58.373Z,18.69
2024-05-09T14:25:00.995Z,18.62
2024-05-09T14:28:04.376Z,18.52
2024-05-09T14:31:06.965Z,18.48
2024-05-09T14:34:09.923Z,18.41
2024-05-09T14:37:12.795Z,18.43
2024-05-09T14:40:30.488Z,18.64
2024-05-09T14:43:38.504Z,18.64
2024-05-09T14:46:41.078Z,18.75
2024-05-09T14:49:44.880Z,18.57
2024-05-09T14:52:47.590Z,18.54
2024-05-09T14:55:50.372Z,18.72
2024-05-09T14:58:53.317Z,18.63
2024-05-09T15:01:56.024Z,18.53
2024-05-09T15:04:59.134Z,18.55
2024-05-09T15:08:01.887Z,18.45
2024-05-09T15:11:04.700Z,18.63
2024-05-09T15:14:07.358Z,18.60
2024-05-09T15:17:09.882Z,18.66
2024-05-09T15:20:17.058Z,18.53
2024-05-09T15:23:23.046Z,18.42
2024-05-09T15:26:25.872Z,18.42
2024-05-09T15:29:29.979Z,18.36
2024-05-09T15:32:32.690Z,18.30
2024-05-09T15:35:36.276Z,18.27
2024-05-09T15:38:39.760Z,18.32
2024-05-09T15:41:42.456Z,18.24
2024-05-09T15:44:53.322Z,18.16
2024-05-09T15:47:57.399Z,18.36
2024-05-09T15:51:00.248Z,18.28
2024-05-09T15:54:02.811Z,18.28
2024-05-09T15:57:05.997Z,18.18
2024-05-09T16:00:18.072Z,18.11
2024-05-09T16:03:27.191Z,18.07
2024-05-09T16:06:29.886Z,18.03
2024-05-09T16:09:32.554Z,18.03
2024-05-09T16:12:35.062Z,17.79
2024-05-09T16:15:37.821Z,18.03
2024-05-09T16:18:40.743Z,17.95
2024-05-09T16:21:43.446Z,17.98
2024-05-09T16:24:46.081Z,17.80
2024-05-09T16:27:48.809Z,17.92
2024-05-09T16:30:52.021Z,17.86
2024-05-09T16:33:54.793Z,17.88
2024-05-09T16:36:57.572Z,17.85
2024-05-09T16:40:00.318Z,17.68
2024-05-09T16:43:06.511Z,17.71
2024-05-09T16:46:09.511Z,17.46
2024-05-09T16:49:12.230Z,17.46
2024-05-09T16:52:16.067Z,17.33
2024-05-09T16:55:19.452Z,17.06
2024-05-09T16:58:22.119Z,16.94
2024-05-09T17:01:24.744Z,16.80
2024-05-09T17:04:27.573Z,16.58
2024-05-09T17:07:30.534Z,16.52
2024-05-09T17:10:34.975Z,16.12
2024-05-09T17:13:39.809Z,16.15
2024-05-09T17:16:42.424Z,15.70
2024-05-09T17:19:49.337Z,15.40
2024-05-09T17:22:53.768Z,15.37
2024-05-09T17:25:59.757Z,15.07
2024-05-09T17:29:02.542Z,14.99
2024-05-09T17:32:06.468Z,14.84
2024-05-09T17:35:09.112Z,14.65
2024-05-09T17:38:11.929Z,14.43
2024-05-09T17:41:14.625Z,14.34
2024-05-09T17:44:17.179Z,14.06
2024-05-09T17:47:20.782Z,14.09
2024-05-09T17:50:30.336Z,14.06
2024-05-09T17:53:37.096Z,13.84
2024-05-09T17:56:39.592Z,13.68
2024-05-09T17:59:42.222Z,13.49
2024-05-09T18:02:44.932Z,13.40
2024-05-09T18:05:47.772Z,13.27
2024-05-09T18:08:50.427Z,13.25
2024-05-09T18:11:53.122Z,13.12
2024-05-09T18:14:55.723Z,12.85
2024-05-09T18:17:58.507Z,12.73
2024-05-09T18:21:01.325Z,12.57
2024-05-09T18:24:04.296Z,12.42
2024-05-09T18:27:06.881Z,12.24
2024-05-09T18:30:23.809Z,12.03
2024-05-09T18:33:30.977Z,11.87
2024-05-09T18:36:34.570Z,11.61
2024-05-09T18:39:37.520Z,11.55
2024-05-09T18:42:40.918Z,11.50
2024-05-09T18:45:43.767Z,11.28
2024-05-09T18:48:46.952Z,11.19
2024-05-09T18:51:50.668Z,11.07
2024-05-09T18:54:53.978Z,10.96
2024-05-09T18:57:56.926Z,10.92
2024-05-09T19:01:01.776Z,10.84
2024-05-09T19:04:05.590Z,10.73
2024-05-09T19:07:12.613Z,10.62
2024-05-09T19:10:22.501Z,10.55
2024-05-09T19:13:29.735Z,10.48
2024-05-09T19:16:33.652Z,10.47
2024-05-09T19:19:37.354Z,10.46
2024-05-09T19:22:40.161Z,10.40
2024-05-09T19:25:43.351Z,10.33
2024-05-09T19:28:46.823Z,10.35
2024-05-09T19:31:50.810Z,10.13
2024-05-09T19:34:54.476Z,10.22
2024-05-09T19:37:57.775Z,10.13
2024-05-09T19:41:01.234Z,10.05
2024-05-09T19:44:07.201Z,10.02
2024-05-09T19:47:09.955Z,9.93
2024-05-09T19:50:19.543Z,9.82
2024-05-09T19:53:26.921Z,9.75
2024-05-09T19:56:31.101Z,9.68
2024-05-09T19:59:34.360Z,9.67
2024-05-09T20:02:38.742Z,9.69
2024-05-09T20:05:45.131Z,9.70
2024-05-09T20:08:48.959Z,9.72
2024-05-09T20:11:52.452Z,9.63
2024-05-09T20:14:58.351Z,9.61
2024-05-09T20:18:02.256Z,9.50
2024-05-09T20:21:07.408Z,9.46
2024-05-09T20:24:11.567Z,9.43
2024-05-09T20:27:15.401Z,9.32
2024-05-09T20:30:25.473Z,9.29
2024-05-09T20:33:35.938Z,9.28
2024-05-09T20:36:40.888Z,9.31
2024-05-09T20:39:44.751Z,9.21
2024-05-09T20:42:49.314Z,9.20
2024-05-09T20:45:52.140Z,9.12
2024-05-09T20:48:56.768Z,9.15
2024-05-09T20:51:59.508Z,9.07
2024-05-09T20:55:02.255Z,9.07
2024-05-09T20:58:05.682Z,8.98
2024-05-09T21:01:08.463Z,8.89
2024-05-09T21:04:11.386Z,8.90
2024-05-09T21:07:14.486Z,8.94
2024-05-09T21:10:22.383Z,8.93
2024-05-09T21:13:26.010Z,9.00
2024-05-09T21:16:28.959Z,8.76
2024-05-09T21:19:31.517Z,8.87
2024-05-09T21:22:34.148Z,8.82
2024-05-09T21:25:37.032Z,8.81
2024-05-09T21:28:39.697Z,8.74
2024-05-09T21:31:42.224Z,8.69
2024-05-09T21:34:44.955Z,8.67
2024-05-09T21:37:47.632Z,8.61
2024-05-09T21:40:50.340Z,8.65
2024-05-09T21:43:52.884Z,8.57
2024-05-09T21:46:55.459Z,8.66
2024-05-09T21:49:57.981Z,8.48
2024-05-09T21:53:00.482Z,8.60
2024-05-09T21:56:03.043Z,8.54
2024-05-09T21:59:05.599Z,8.60
2024-05-09T22:02:09.445Z,8.55
2024-05-09T22:05:14.362Z,8.50
2024-05-09T22:08:17.233Z,8.47
2024-05-09T22:11:19.922Z,8.45
2024-05-09T22:14:22.742Z,8.54
2024-05-09T22:17:25.494Z,8.47
2024-05-09T22:20:34.518Z,8.41
2024-05-09T22:23:40.628Z,8.22
2024-05-09T22:26:43.256Z,8.31
2024-05-09T22:29:45.762Z,8.14
2024-05-09T22:32:48.502Z,8.37
2024-05-09T22:35:51.857Z,8.19
2024-05-09T22:38:54.451Z,8.21
2024-05-09T22:41:56.995Z,8.09
2024-05-09T22:44:59.513Z,8.06
2024-05-09T22:48:02.270Z,8.11
2024-05-09T22:51:05.281Z,7.97
2024-05-09T22:54:08.382Z,7.93
2024-05-09T22:57:10.869Z,7.91
2024-05-09T23:00:16.006Z,7.91
2024-05-09T23:03:21.904Z,7.85
2024-05-09T23:06:25.209Z,7.71
2024-05-09T23:09:27.742Z,7.70
2024-05-09T23:12:30.290Z,7.60
2024-05-09T23:15:32.870Z,7.58
2024-05-09T23:18:35.427Z,7.55
2024-05-09T23:21:41.341Z,7.46
2024-05-09T23:24:43.886Z,7.46
2024-05-09T23:27:46.545Z,7.35
2024-05-09T23:30:49.207Z,7.31
2024-05-09T23:33:51.951Z,7.37
2024-05-09T23:36:54.678Z,7.46
2024-05-09T23:39:57.270Z,7.43
2024-05-09T23:43:00.022Z,7.52
2024-05-09T23:46:03.131Z,7.32
2024-05-09T23:49:06.193Z,7.25
2024-05-09T23:52:08.804Z,7.21
2024-05-09T23:55:11.500Z,7.28
2024-05-09T23:58:14.176Z,7.15
